createdAt,value
2022-10-31T00:00:31.367Z,20.08
2022-10-31T00:02:58.212Z,20.67
2022-10-31T00:05:25.048Z,19.15
2022-10-31T00:07:54.656Z,18.40
2022-10-31T00:10:21.296Z,19.27
2022-10-31T00:12:47.853Z,22.85
2022-10-31T00:15:14.426Z,23.15
2022-10-31T00:17:40.992Z,21.83
2022-10-31T00:20:08.078Z,21.58
2022-10-31T00:22:34.625Z,22.52
2022-10-31T00:25:01.173Z,27.58
2022-10-31T00:27:27.766Z,23.60
2022-10-31T00:29:54.323Z,26.25
2022-10-31T00:32:20.881Z,20.27
2022-10-31T00:34:47.430Z,27.77
2022-10-31T00:37:13.990Z,21.17
2022-10-31T00:39:40.544Z,25.15
2022-10-31T00:42:07.082Z,26.58
2022-10-31T00:44:33.618Z,31.40
2022-10-31T00:47:00.181Z,26.73
2022-10-31T00:49:26.698Z,23.95
2022-10-31T00:51:53.262Z,24.48
2022-10-31T00:54:19.808Z,23.85
2022-10-31T00:56:46.407Z,26.02
2022-10-31T00:59:12.972Z,26.98
2022-10-31T01:01:39.697Z,29.05
2022-10-31T01:04:06.359Z,26.48
2022-10-31T01:06:32.903Z,27.27
2022-10-31T01:08:59.494Z,21.75
2022-10-31T01:11:26.097Z,24.08
2022-10-31T01:13:54.034Z,25.25
2022-10-31T01:16:23.631Z,22.92
2022-10-31T01:18:51.085Z,22.02
2022-10-31T01:21:23.141Z,22.60
2022-10-31T01:23:50.386Z,22.70
2022-10-31T01:26:20.688Z,20.83
2022-10-31T01:28:54.507Z,23.02
2022-10-31T01:31:22.689Z,22.83
2022-10-31T01:33:49.286Z,23.88
2022-10-31T01:36:24.739Z,25.50
2022-10-31T01:38:53.258Z,29.33
2022-10-31T01:43:49.534Z,23.73
2022-10-31T01:46:18.572Z,22.33
2022-10-31T01:48:45.139Z,27.70
2022-10-31T01:51:13.556Z,29.00
2022-10-31T01:53:40.852Z,29.58
2022-10-31T01:56:07.585Z,26.20
2022-10-31T01:58:34.399Z,25.80
2022-10-31T02:01:04.953Z,24.95
2022-10-31T02:03:34.524Z,24.40
2022-10-31T02:06:01.143Z,20.92
2022-10-31T02:08:30.374Z,23.83
2022-10-31T02:11:01.952Z,25.25
2022-10-31T02:13:29.521Z,23.75
2022-10-31T02:15:58.595Z,27.73
2022-10-31T02:18:27.658Z,25.20
2022-10-31T02:21:03.388Z,25.30
2022-10-31T02:23:55.723Z,23.85
2022-10-31T02:27:00.144Z,21.90
2022-10-31T02:29:26.655Z,24.15
2022-10-31T02:32:14.529Z,27.50
2022-10-31T02:34:47.175Z,33.90
2022-10-31T02:37:50.757Z,26.65
2022-10-31T02:40:27.448Z,23.90
2022-10-31T02:43:44.450Z,27.45
2022-10-31T02:46:16.658Z,24.20
2022-10-31T02:48:44.754Z,25.63
2022-10-31T02:51:12.496Z,26.50
2022-10-31T02:53:39.423Z,21.05
2022-10-31T02:56:26.222Z,23.02
2022-10-31T02:58:56.189Z,21.83
2022-10-31T03:01:35.480Z,24.58
2022-10-31T03:04:05.197Z,21.08
2022-10-31T03:06:40.721Z,23.80
2022-10-31T03:09:58.504Z,20.45
2022-10-31T03:12:34.918Z,16.90
2022-10-31T03:15:26.353Z,17.60
2022-10-31T03:18:09.905Z,20.58
2022-10-31T03:20:43.473Z,23.77
2022-10-31T03:23:13.638Z,23.55
2022-10-31T03:25:40.618Z,24.50
2022-10-31T03:28:08.510Z,22.80
2022-10-31T03:30:37.202Z,27.50
2022-10-31T03:33:07.003Z,25.63
2022-10-31T03:35:34.069Z,27.60
2022-10-31T03:38:05.536Z,25.48
2022-10-31T03:40:36.310Z,26.48
2022-10-31T03:45:32.065Z,26.13
2022-10-31T03:47:59.989Z,24.70
2022-10-31T03:50:33.432Z,32.88
2022-10-31T03:53:07.579Z,25.80
2022-10-31T03:55:53.379Z,27.90
2022-10-31T03:58:26.869Z,26.00
2022-10-31T04:00:55.636Z,25.00
2022-10-31T04:03:28.170Z,26.48
2022-10-31T04:05:56.645Z,29.02
2022-10-31T04:08:26.796Z,32.10
2022-10-31T04:10:53.864Z,26.38
2022-10-31T04:13:24.436Z,25.05
2022-10-31T04:15:53.390Z,23.17
2022-10-31T04:18:19.982Z,25.00
2022-10-31T04:20:49.719Z,19.63
2022-10-31T04:23:21.726Z,24.55
2022-10-31T04:25:48.287Z,28.55
2022-10-31T04:28:14.898Z,24.70
2022-10-31T04:30:41.569Z,25.85
2022-10-31T04:33:08.128Z,22.13
2022-10-31T04:35:34.675Z,22.25
2022-10-31T04:38:01.275Z,26.70
2022-10-31T04:40:27.866Z,22.13
2022-10-31T04:42:54.595Z,24.98
2022-10-31T04:45:21.527Z,25.33
2022-10-31T04:47:48.217Z,31.65
2022-10-31T04:50:14.785Z,33.53
2022-10-31T04:52:43.236Z,30.20
2022-10-31T04:55:10.762Z,31.75
2022-10-31T04:57:44.554Z,25.27
2022-10-31T05:00:12.726Z,28.38
2022-10-31T05:02:56.705Z,25.83
2022-10-31T05:05:26.728Z,28.70
2022-10-31T05:07:53.686Z,22.85
2022-10-31T05:10:26.048Z,24.73
2022-10-31T05:12:57.675Z,20.42
2022-10-31T05:15:26.020Z,23.95
2022-10-31T05:17:53.310Z,25.75
2022-10-31T05:20:22.197Z,27.83
2022-10-31T05:25:16.989Z,29.67
2022-10-31T05:27:45.714Z,28.45
2022-10-31T05:30:14.821Z,24.00
2022-10-31T05:32:42.905Z,23.58
2022-10-31T05:35:11.491Z,21.38
2022-10-31T05:40:08.309Z,19.02
2022-10-31T05:42:35.792Z,22.25
2022-10-31T05:45:02.508Z,22.48
2022-10-31T05:47:29.091Z,24.30
2022-10-31T05:49:55.745Z,24.45
2022-10-31T05:52:22.322Z,23.42
2022-10-31T05:54:48.855Z,27.80
2022-10-31T05:57:15.470Z,28.80
2022-10-31T05:59:42.106Z,23.85
2022-10-31T06:02:08.667Z,24.67
2022-10-31T06:04:35.280Z,27.92
2022-10-31T06:07:01.894Z,24.40
2022-10-31T06:09:28.478Z,26.35
2022-10-31T06:11:55.006Z,26.90
2022-10-31T06:14:21.561Z,24.85
2022-10-31T06:16:48.139Z,26.70
2022-10-31T06:19:14.739Z,23.48
2022-10-31T06:21:41.282Z,24.00
2022-10-31T06:24:08.040Z,25.95
2022-10-31T06:26:34.575Z,24.75
2022-10-31T06:29:03.880Z,29.42
2022-10-31T06:31:30.946Z,26.90
2022-10-31T06:33:57.703Z,27.60
2022-10-31T06:36:24.375Z,25.35
2022-10-31T06:38:51.009Z,26.45
2022-10-31T06:41:17.588Z,29.67
2022-10-31T06:43:47.446Z,27.90
2022-10-31T06:46:14.353Z,26.65
2022-10-31T06:48:43.962Z,27.95
2022-10-31T06:51:10.661Z,26.38
2022-10-31T06:53:37.248Z,29.58
2022-10-31T06:56:03.985Z,35.65
2022-10-31T06:58:30.530Z,29.60
2022-10-31T07:01:00.433Z,31.30
2022-10-31T07:03:27.133Z,32.95
2022-10-31T07:05:56.189Z,28.40
2022-10-31T07:08:22.777Z,26.23
2022-10-31T07:10:57.192Z,30.65
2022-10-31T07:13:26.644Z,26.92
2022-10-31T07:16:01.287Z,36.78
2022-10-31T07:18:28.346Z,38.42
2022-10-31T07:20:54.983Z,27.67
2022-10-31T07:23:22.104Z,30.67
2022-10-31T07:25:48.863Z,30.55
2022-10-31T07:28:15.430Z,31.27
2022-10-31T07:30:41.993Z,30.58
2022-10-31T07:33:09.586Z,31.63
2022-10-31T07:35:36.317Z,26.38
2022-10-31T07:38:13.503Z,32.30
2022-10-31T07:40:41.243Z,33.85
2022-10-31T07:43:11.607Z,30.95
2022-10-31T07:45:39.721Z,33.22
2022-10-31T07:48:06.521Z,31.63
2022-10-31T07:50:36.906Z,28.65
2022-10-31T07:53:08.695Z,31.05
2022-10-31T07:55:35.942Z,32.65
2022-10-31T07:58:07.313Z,30.15
2022-10-31T08:00:35.559Z,46.25
2022-10-31T08:03:06.081Z,33.92
2022-10-31T08:05:33.742Z,35.00
2022-10-31T08:08:00.646Z,27.67
2022-10-31T08:10:28.456Z,25.73
2022-10-31T08:13:02.029Z,22.40
2022-10-31T08:15:29.130Z,22.25
2022-10-31T08:17:55.681Z,26.05
2022-10-31T08:20:22.394Z,24.75
2022-10-31T08:23:03.470Z,36.38
2022-10-31T08:25:37.197Z,35.33
2022-10-31T08:28:06.513Z,27.23
2022-10-31T08:30:34.723Z,28.92
2022-10-31T08:33:09.682Z,33.08
2022-10-31T08:35:36.249Z,29.30
2022-10-31T08:38:03.482Z,28.40
2022-10-31T08:40:32.413Z,25.50
2022-10-31T08:43:13.868Z,30.27
2022-10-31T08:45:40.781Z,37.17
2022-10-31T08:48:11.295Z,30.42
2022-10-31T08:50:38.500Z,31.40
2022-10-31T08:53:07.146Z,30.08
2022-10-31T08:55:36.356Z,30.80
2022-10-31T08:58:04.375Z,36.08
2022-10-31T09:00:31.278Z,29.58
2022-10-31T09:03:03.803Z,30.40
2022-10-31T09:05:30.668Z,37.35
2022-10-31T09:08:02.023Z,33.45
2022-10-31T09:10:29.709Z,31.40
2022-10-31T09:13:07.274Z,33.55
2022-10-31T09:15:39.390Z,33.20
2022-10-31T09:18:06.934Z,32.10
2022-10-31T09:20:34.563Z,34.78
2022-10-31T09:23:03.569Z,33.27
2022-10-31T09:25:30.565Z,32.80
2022-10-31T09:28:01.782Z,29.75
2022-10-31T09:30:30.222Z,39.17
2022-10-31T09:32:57.986Z,32.83
2022-10-31T09:35:25.861Z,32.65
2022-10-31T09:38:00.738Z,32.67
2022-10-31T09:40:42.147Z,32.50
2022-10-31T09:43:45.873Z,34.53
2022-10-31T09:46:36.915Z,32.00
2022-10-31T09:49:21.774Z,38.92
2022-10-31T09:54:54.211Z,30.98
2022-10-31T09:57:26.875Z,30.05
2022-10-31T09:59:53.519Z,34.92
2022-10-31T10:02:34.854Z,29.98
2022-10-31T10:05:07.038Z,33.67
2022-10-31T10:07:33.533Z,42.28
2022-10-31T10:10:16.031Z,36.75
2022-10-31T10:13:08.106Z,36.20
2022-10-31T10:15:57.429Z,33.03
2022-10-31T10:18:51.737Z,34.78
2022-10-31T10:21:43.675Z,35.28
2022-10-31T10:24:25.477Z,41.67
2022-10-31T10:26:57.404Z,33.55
2022-10-31T10:29:39.096Z,39.10
2022-10-31T10:32:12.822Z,40.60
2022-10-31T10:34:46.624Z,46.00
2022-10-31T10:37:34.174Z,33.45
2022-10-31T10:40:24.946Z,31.65
2022-10-31T10:43:24.902Z,31.13
2022-10-31T10:46:32.791Z,31.90
2022-10-31T10:49:23.916Z,30.98
2022-10-31T10:52:35.198Z,35.58
2022-10-31T10:55:04.343Z,31.20
2022-10-31T10:57:33.766Z,32.65
2022-10-31T11:00:04.331Z,30.10
2022-10-31T11:02:33.058Z,30.45
2022-10-31T11:05:01.846Z,33.90
2022-10-31T11:07:39.734Z,32.22
2022-10-31T11:10:14.142Z,31.30
2022-10-31T11:12:41.129Z,31.83
2022-10-31T11:15:22.540Z,30.23
2022-10-31T11:17:56.587Z,25.80
2022-10-31T11:20:32.831Z,27.33
2022-10-31T11:23:17.908Z,24.15
2022-10-31T11:26:05.205Z,28.45
2022-10-31T11:28:35.734Z,29.38
2022-10-31T11:31:07.516Z,23.65
2022-10-31T11:33:36.666Z,26.42
2022-10-31T11:36:11.451Z,22.63
2022-10-31T11:38:42.391Z,27.55
2022-10-31T11:41:08.901Z,27.20
2022-10-31T11:43:35.490Z,21.98
2022-10-31T11:46:12.674Z,23.08
2022-10-31T11:48:39.243Z,25.15
2022-10-31T11:51:06.113Z,21.27
2022-10-31T11:53:35.131Z,25.05
2022-10-31T11:56:06.298Z,23.63
2022-10-31T11:58:32.954Z,23.27
2022-10-31T12:00:59.847Z,16.90
2022-10-31T12:03:49.849Z,21.15
2022-10-31T12:06:24.442Z,24.88
2022-10-31T12:08:51.034Z,25.02
2022-10-31T12:11:32.990Z,26.40
2022-10-31T12:14:34.705Z,27.13
2022-10-31T12:17:07.608Z,19.52
2022-10-31T12:19:51.336Z,27.27
2022-10-31T12:22:39.343Z,20.40
2022-10-31T12:25:31.763Z,22.98
2022-10-31T12:28:05.864Z,23.58
2022-10-31T12:30:35.426Z,23.15
2022-10-31T12:33:23.818Z,21.00
2022-10-31T12:38:35.214Z,27.58
2022-10-31T12:41:20.386Z,24.30
2022-10-31T12:43:46.994Z,22.95
2022-10-31T12:46:30.475Z,20.83
2022-10-31T12:49:09.383Z,25.58
2022-10-31T12:51:49.438Z,16.38
2022-10-31T12:54:59.290Z,19.05
2022-10-31T12:57:42.579Z,25.08
2022-10-31T13:00:17.524Z,23.55
2022-10-31T13:02:44.090Z,18.23
2022-10-31T13:05:15.986Z,22.95
2022-10-31T13:07:47.795Z,20.42
2022-10-31T13:10:31.560Z,18.63
2022-10-31T13:13:03.891Z,24.08
2022-10-31T13:15:34.490Z,21.45
2022-10-31T13:18:06.055Z,16.80
2022-10-31T13:20:44.356Z,17.92
2022-10-31T13:26:39.065Z,20.73
2022-10-31T13:29:32.895Z,16.02
2022-10-31T13:32:01.782Z,16.17
2022-10-31T13:34:40.792Z,16.13
2022-10-31T13:37:17.323Z,12.65
2022-10-31T13:40:00.278Z,14.07
2022-10-31T13:42:32.888Z,13.18
2022-10-31T13:45:34.735Z,19.10
2022-10-31T13:48:18.052Z,19.13
2022-10-31T13:50:57.188Z,28.02
2022-10-31T13:53:40.663Z,15.45
2022-10-31T13:56:10.305Z,15.52
2022-10-31T13:58:37.291Z,13.63
2022-10-31T14:01:15.044Z,13.82
2022-10-31T14:04:07.656Z,14.05
2022-10-31T14:06:46.422Z,12.18
2022-10-31T14:09:22.896Z,13.82
2022-10-31T14:11:50.698Z,12.20
2022-10-31T14:14:18.306Z,16.40
2022-10-31T14:16:46.156Z,12.63
2022-10-31T14:19:19.059Z,15.07
2022-10-31T14:21:47.712Z,14.50
2022-10-31T14:24:16.856Z,16.27
2022-10-31T14:26:58.021Z,11.68
2022-10-31T14:29:27.839Z,11.10
2022-10-31T14:32:13.636Z,11.07
2022-10-31T14:34:44.498Z,15.07
2022-10-31T14:37:22.682Z,12.98
2022-10-31T14:40:20.285Z,11.85
2022-10-31T14:43:05.383Z,19.10
2022-10-31T14:45:40.778Z,16.20
2022-10-31T14:48:34.631Z,14.85
2022-10-31T14:51:03.770Z,13.18
2022-10-31T14:53:43.402Z,15.90
2022-10-31T14:56:11.502Z,10.23
2022-10-31T14:58:44.344Z,12.52
2022-10-31T15:01:29.755Z,13.50
2022-10-31T15:04:28.167Z,14.27
2022-10-31T15:07:08.146Z,10.15
2022-10-31T15:09:36.063Z,12.50
2022-10-31T15:12:21.956Z,11.38
2022-10-31T15:14:48.622Z,10.23
2022-10-31T15:17:15.259Z,13.75
2022-10-31T15:19:43.555Z,12.55
2022-10-31T15:22:19.044Z,8.73
2022-10-31T15:24:46.386Z,11.73
2022-10-31T15:27:19.920Z,11.85
2022-10-31T15:29:54.502Z,10.52
2022-10-31T15:32:23.807Z,13.77
2022-10-31T15:34:52.650Z,12.02
2022-10-31T15:37:23.613Z,11.10
2022-10-31T15:39:50.718Z,13.35
2022-10-31T15:42:39.701Z,10.98
2022-10-31T15:45:18.326Z,14.18
2022-10-31T15:48:05.816Z,17.85
2022-10-31T15:50:37.375Z,13.15
2022-10-31T15:53:04.806Z,13.38
2022-10-31T15:55:36.104Z,13.83
2022-10-31T15:58:05.741Z,11.20
2022-10-31T16:00:36.014Z,11.02
2022-10-31T16:03:14.826Z,10.93
2022-10-31T16:05:50.082Z,12.13
2022-10-31T16:08:32.070Z,18.40
2022-10-31T16:11:17.602Z,11.48
2022-10-31T16:14:11.597Z,12.35
2022-10-31T16:16:45.557Z,11.77
2022-10-31T16:19:28.966Z,15.55
2022-10-31T16:22:05.091Z,12.07
2022-10-31T16:24:33.518Z,12.13
2022-10-31T16:27:06.104Z,12.02
2022-10-31T16:29:47.254Z,15.00
2022-10-31T16:32:34.154Z,10.85
2022-10-31T16:35:10.418Z,16.27
2022-10-31T16:37:41.166Z,10.27
2022-10-31T16:40:08.938Z,13.25
2022-10-31T16:42:35.576Z,12.00
2022-10-31T16:45:02.170Z,11.57
2022-10-31T16:47:28.841Z,16.67
2022-10-31T16:49:55.479Z,12.88
2022-10-31T16:52:22.245Z,12.88
2022-10-31T16:54:48.817Z,14.48
2022-10-31T16:57:18.703Z,12.00
2022-10-31T16:59:47.479Z,11.68
2022-10-31T17:02:16.422Z,12.70
2022-10-31T17:04:43.597Z,10.85
2022-10-31T17:07:10.234Z,16.27
2022-10-31T17:09:36.825Z,13.82
2022-10-31T17:12:04.537Z,11.73
2022-10-31T17:14:31.602Z,12.83
2022-10-31T17:16:58.146Z,13.75
2022-10-31T17:19:24.720Z,13.95
2022-10-31T17:21:51.322Z,14.05
2022-10-31T17:24:17.856Z,13.30
2022-10-31T17:26:44.408Z,15.43
2022-10-31T17:29:11.015Z,15.13
2022-10-31T17:31:39.299Z,15.35
2022-10-31T17:34:07.050Z,14.65
2022-10-31T17:36:34.701Z,14.60
2022-10-31T17:39:01.448Z,16.00
2022-10-31T17:41:28.018Z,14.52
2022-10-31T17:43:56.153Z,16.88
2022-10-31T17:46:22.826Z,13.30
2022-10-31T17:48:49.396Z,11.63
2022-10-31T17:51:15.955Z,14.40
2022-10-31T17:53:42.579Z,12.68
2022-10-31T17:56:10.114Z,14.60
2022-10-31T17:58:37.761Z,16.38
2022-10-31T18:01:13.713Z,14.47
2022-10-31T18:03:41.200Z,13.88
2022-10-31T18:06:08.787Z,13.98
2022-10-31T18:08:37.003Z,18.52
2022-10-31T18:11:09.618Z,15.18
2022-10-31T18:13:37.045Z,15.55
2022-10-31T18:16:11.017Z,13.73
2022-10-31T18:18:37.634Z,13.77
2022-10-31T18:21:04.477Z,14.57
2022-10-31T18:23:31.096Z,14.88
2022-10-31T18:25:57.767Z,13.40
2022-10-31T18:28:24.317Z,17.02
2022-10-31T18:30:50.999Z,14.90
2022-10-31T18:33:17.542Z,15.23
2022-10-31T18:35:44.178Z,14.40
2022-10-31T18:38:10.904Z,15.38
2022-10-31T18:40:37.510Z,14.15
2022-10-31T18:43:04.120Z,16.40
2022-10-31T18:45:41.480Z,15.95
2022-10-31T18:48:14.440Z,20.15
2022-10-31T18:50:41.520Z,22.75
2022-10-31T18:53:08.193Z,21.67
2022-10-31T18:55:38.854Z,22.92
2022-10-31T18:58:05.474Z,18.73
2022-10-31T19:00:32.058Z,18.95
2022-10-31T19:02:58.864Z,21.58
2022-10-31T19:05:25.634Z,21.88
2022-10-31T19:07:52.257Z,19.60
2022-10-31T19:10:18.806Z,22.15
2022-10-31T19:12:45.346Z,24.05
2022-10-31T19:15:11.891Z,29.83
2022-10-31T19:17:38.439Z,22.05
2022-10-31T19:20:05.489Z,21.50
2022-10-31T19:22:32.325Z,20.05
2022-10-31T19:24:58.885Z,20.48
2022-10-31T19:27:28.075Z,17.02
2022-10-31T19:29:54.683Z,21.77
2022-10-31T19:32:21.244Z,21.88
2022-10-31T19:34:47.801Z,20.73
2022-10-31T19:37:14.729Z,21.02
2022-10-31T19:39:44.179Z,21.15
2022-10-31T19:42:11.968Z,22.48
2022-10-31T19:44:38.535Z,18.67
2022-10-31T19:47:05.362Z,17.52
2022-10-31T19:49:31.976Z,19.58
2022-10-31T19:51:58.567Z,19.48
2022-10-31T19:54:25.112Z,20.67
2022-10-31T19:56:51.686Z,20.05
2022-10-31T19:59:18.276Z,18.00
2022-10-31T20:01:44.946Z,17.77
2022-10-31T20:04:11.722Z,20.83
2022-10-31T20:06:40.313Z,14.55
2022-10-31T20:11:36.255Z,21.23
2022-10-31T20:14:02.975Z,23.13
2022-10-31T20:16:29.994Z,23.42
2022-10-31T20:18:56.929Z,22.52
2022-10-31T20:21:26.474Z,18.85
2022-10-31T20:24:01.128Z,15.02
2022-10-31T20:26:28.872Z,18.10
2022-10-31T20:28:56.726Z,18.80
2022-10-31T20:31:27.464Z,18.38
2022-10-31T20:33:54.322Z,19.75
2022-10-31T20:36:23.797Z,18.38
2022-10-31T20:38:51.844Z,18.52
2022-10-31T20:41:18.895Z,18.33
2022-10-31T20:43:45.667Z,20.00
2022-10-31T20:46:17.219Z,18.92
2022-10-31T20:48:44.017Z,20.77
2022-10-31T20:53:51.979Z,20.27
2022-10-31T20:56:20.754Z,15.32
2022-10-31T20:58:47.721Z,17.88
2022-10-31T21:01:22.534Z,20.88
2022-10-31T21:03:49.951Z,16.15
2022-10-31T21:06:17.511Z,19.17
2022-10-31T21:08:44.763Z,18.40
2022-10-31T21:11:16.445Z,17.95
2022-10-31T21:13:44.418Z,20.30
2022-10-31T21:16:13.665Z,22.00
2022-10-31T21:18:41.984Z,17.48
2022-10-31T21:21:14.084Z,21.00
2022-10-31T21:23:40.956Z,21.15
2022-10-31T21:26:27.324Z,19.65
2022-10-31T21:28:56.108Z,22.63
2022-10-31T21:31:23.659Z,17.30
2022-10-31T21:33:50.255Z,18.60
2022-10-31T21:36:17.404Z,21.13
2022-10-31T21:38:44.216Z,23.17
2022-10-31T21:41:15.305Z,20.02
2022-10-31T21:43:44.442Z,22.02
2022-10-31T21:46:21.729Z,16.55
2022-10-31T21:48:48.794Z,21.27
2022-10-31T21:51:21.109Z,17.35
2022-10-31T21:54:06.830Z,16.63
2022-10-31T21:56:33.723Z,16.17
2022-10-31T21:59:00.460Z,17.17
2022-10-31T22:01:28.598Z,18.33
2022-10-31T22:03:55.805Z,15.57
2022-10-31T22:06:23.128Z,22.38
2022-10-31T22:08:49.673Z,14.00
2022-10-31T22:11:17.748Z,17.20
2022-10-31T22:13:46.754Z,16.30
2022-10-31T22:16:22.351Z,17.10
2022-10-31T22:18:52.780Z,16.00
2022-10-31T22:21:20.750Z,17.38
2022-10-31T22:23:55.157Z,19.48
2022-10-31T22:26:22.474Z,17.45
2022-10-31T22:28:55.935Z,17.05
2022-10-31T22:31:23.992Z,17.60
2022-10-31T22:33:51.078Z,16.02
2022-10-31T22:36:22.466Z,15.82
2022-10-31T22:38:49.053Z,20.50
2022-10-31T22:41:20.943Z,15.60
2022-10-31T22:43:48.174Z,15.73
2022-10-31T22:46:17.384Z,18.70
2022-10-31T22:48:54.707Z,15.90
2022-10-31T22:51:23.694Z,13.98
2022-10-31T22:53:50.912Z,18.02
2022-10-31T22:56:20.309Z,14.85
2022-10-31T22:58:47.749Z,14.45
2022-10-31T23:01:16.633Z,17.50
2022-10-31T23:03:43.415Z,16.25
2022-10-31T23:06:13.041Z,19.35
2022-10-31T23:08:40.398Z,16.15
2022-10-31T23:11:24.315Z,14.98
2022-10-31T23:14:12.122Z,18.05
2022-10-31T23:16:52.079Z,14.95
2022-10-31T23:19:23.091Z,17.48
2022-10-31T23:21:55.702Z,15.07
2022-10-31T23:24:34.655Z,22.10
2022-10-31T23:27:09.107Z,14.13
2022-10-31T23:29:47.772Z,15.73
2022-10-31T23:32:21.871Z,14.45
2022-10-31T23:34:50.121Z,13.25
2022-10-31T23:37:18.075Z,13.50
2022-10-31T23:39:44.865Z,15.05
2022-10-31T23:42:11.590Z,13.23
2022-10-31T23:44:38.267Z,13.30
2022-10-31T23:47:05.405Z,14.73
2022-10-31T23:49:32.229Z,10.45
2022-10-31T23:51:58.910Z,10.25
2022-10-31T23:54:26.679Z,10.23
2022-10-31T23:56:53.901Z,12.57
2022-10-31T23:59:20.632Z,15.15
